createdAt,value
2023-04-12T00:00:49.603Z,1007.39
2023-04-12T00:01:48.605Z,1007.35
2023-04-12T00:02:48.719Z,1007.34
2023-04-12T00:03:48.653Z,1007.35
2023-04-12T00:04:48.718Z,1007.31
2023-04-12T00:05:48.607Z,1007.26
2023-04-12T00:06:49.563Z,1007.28
2023-04-12T00:07:48.545Z,1007.24
2023-04-12T00:08:48.553Z,1007.27
2023-04-12T00:09:48.539Z,1007.23
2023-04-12T00:10:48.529Z,1007.25
2023-04-12T00:11:48.542Z,1007.27
2023-04-12T00:12:49.535Z,1007.23
2023-04-12T00:13:48.512Z,1007.25
2023-04-12T00:14:48.507Z,1007.26
2023-04-12T00:15:48.505Z,1007.24
2023-04-12T00:16:48.501Z,1007.29
2023-04-12T00:17:48.508Z,1007.20
2023-04-12T00:18:49.504Z,1007.22
2023-04-12T00:19:48.465Z,1007.18
2023-04-12T00:20:48.470Z,1007.20
2023-04-12T00:21:48.493Z,1007.17
2023-04-12T00:22:48.459Z,1007.14
2023-04-12T00:23:48.442Z,1007.13
2023-04-12T00:24:49.469Z,1007.13
2023-04-12T00:25:48.442Z,1007.14
2023-04-12T00:26:48.450Z,1007.16
2023-04-12T00:27:48.415Z,1007.17
2023-04-12T00:28:48.414Z,1007.12
2023-04-12T00:29:48.392Z,1007.11
2023-04-12T00:30:49.414Z,1007.21
2023-04-12T00:31:48.659Z,1007.15
2023-04-12T00:32:48.409Z,1007.14
2023-04-12T00:33:48.436Z,1007.15
2023-04-12T00:34:48.389Z,1007.14
2023-04-12T00:35:48.401Z,1007.15
2023-04-12T00:36:49.362Z,1007.16
2023-04-12T00:37:48.347Z,1007.15
2023-04-12T00:38:48.343Z,1007.12
2023-04-12T00:39:48.323Z,1007.11
2023-04-12T00:40:48.340Z,1007.12
2023-04-12T00:41:48.320Z,1007.05
2023-04-12T00:42:49.334Z,1007.09
2023-04-12T00:43:48.297Z,1007.08
2023-04-12T00:44:48.310Z,1007.09
2023-04-12T00:45:48.285Z,1007.12
2023-04-12T00:46:48.368Z,1007.10
2023-04-12T00:47:48.314Z,1007.11
2023-04-12T00:48:49.300Z,1007.13
2023-04-12T00:49:48.253Z,1007.14
2023-04-12T00:50:48.273Z,1007.17
2023-04-12T00:51:48.247Z,1007.12
2023-04-12T00:52:48.248Z,1007.10
2023-04-12T00:53:48.236Z,1007.12
2023-04-12T00:54:49.248Z,1007.10
2023-04-12T00:55:48.226Z,1007.10
2023-04-12T00:56:48.236Z,1007.08
2023-04-12T00:57:48.212Z,1007.11
2023-04-12T00:58:48.216Z,1007.11
2023-04-12T00:59:48.193Z,1007.09
2023-04-12T01:00:49.230Z,1007.08
2023-04-12T01:01:48.277Z,1007.09
2023-04-12T01:02:48.317Z,1007.08
2023-04-12T01:03:48.269Z,1007.15
2023-04-12T01:04:48.182Z,1007.10
2023-04-12T01:05:48.160Z,1007.14
2023-04-12T01:06:49.168Z,1007.12
2023-04-12T01:07:48.143Z,1007.11
2023-04-12T01:08:48.138Z,1007.11
2023-04-12T01:09:48.113Z,1007.07
2023-04-12T01:10:48.129Z,1007.03
2023-04-12T01:11:48.100Z,1006.99
2023-04-12T01:12:49.127Z,1006.99
2023-04-12T01:13:48.094Z,1006.99
2023-04-12T01:14:48.092Z,1006.96
2023-04-12T01:15:48.116Z,1006.93
2023-04-12T01:16:48.109Z,1006.90
2023-04-12T01:17:48.095Z,1006.94
2023-04-12T01:18:49.076Z,1006.86
2023-04-12T01:19:48.049Z,1006.84
2023-04-12T01:20:48.060Z,1006.85
2023-04-12T01:21:48.045Z,1006.85
2023-04-12T01:22:48.044Z,1006.79
2023-04-12T01:23:48.022Z,1006.79
2023-04-12T01:24:49.030Z,1006.75
2023-04-12T01:25:48.090Z,1006.75
2023-04-12T01:26:48.016Z,1006.77
2023-04-12T01:27:48.003Z,1006.73
2023-04-12T01:28:47.990Z,1006.72
2023-04-12T01:29:47.980Z,1006.75
2023-04-12T01:30:48.992Z,1006.73
2023-04-12T01:31:48.022Z,1006.74
2023-04-12T01:32:47.995Z,1006.75
2023-04-12T01:33:47.947Z,1006.78
2023-04-12T01:34:47.956Z,1006.81
2023-04-12T01:35:47.975Z,1006.80
2023-04-12T01:36:48.953Z,1006.78
2023-04-12T01:37:47.937Z,1006.80
2023-04-12T01:38:47.932Z,1006.77
2023-04-12T01:39:47.911Z,1006.72
2023-04-12T01:40:47.911Z,1006.75
2023-04-12T01:41:47.916Z,1006.71
2023-04-12T01:42:48.947Z,1006.71
2023-04-12T01:43:47.882Z,1006.72
2023-04-12T01:44:47.880Z,1006.73
2023-04-12T01:45:47.912Z,1006.67
2023-04-12T01:46:47.868Z,1006.69
2023-04-12T01:47:47.893Z,1006.71
2023-04-12T01:48:48.867Z,1006.66
2023-04-12T01:49:47.849Z,1006.69
2023-04-12T01:50:47.853Z,1006.70
2023-04-12T01:51:47.834Z,1006.73
2023-04-12T01:52:47.843Z,1006.73
2023-04-12T01:53:47.823Z,1006.76
2023-04-12T01:54:48.827Z,1006.77
2023-04-12T01:55:47.806Z,1006.72
2023-04-12T01:56:47.822Z,1006.74
2023-04-12T01:57:47.794Z,1006.66
2023-04-12T01:58:47.790Z,1006.68
2023-04-12T01:59:47.778Z,1006.68
2023-04-12T02:00:48.805Z,1006.68
2023-04-12T02:01:47.834Z,1006.64
2023-04-12T02:02:47.827Z,1006.65
2023-04-12T02:03:47.771Z,1006.65
2023-04-12T02:04:47.758Z,1006.63
2023-04-12T02:05:47.726Z,1006.63
2023-04-12T02:06:48.752Z,1006.60
2023-04-12T02:07:47.759Z,1006.64
2023-04-12T02:08:47.712Z,1006.61
2023-04-12T02:09:47.714Z,1006.62
2023-04-12T02:10:47.700Z,1006.55
2023-04-12T02:11:47.714Z,1006.59
2023-04-12T02:12:48.699Z,1006.56
2023-04-12T02:13:47.659Z,1006.60
2023-04-12T02:14:47.683Z,1006.51
2023-04-12T02:15:47.655Z,1006.53
2023-04-12T02:16:47.730Z,1006.51
2023-04-12T02:17:47.693Z,1006.51
2023-04-12T02:18:48.651Z,1006.48
2023-04-12T02:19:47.625Z,1006.48
2023-04-12T02:20:47.624Z,1006.48
2023-04-12T02:21:47.605Z,1006.49
2023-04-12T02:22:47.630Z,1006.48
2023-04-12T02:23:47.590Z,1006.42
2023-04-12T02:24:48.610Z,1006.39
2023-04-12T02:25:47.635Z,1006.33
2023-04-12T02:26:47.600Z,1006.32
2023-04-12T02:27:47.565Z,1006.31
2023-04-12T02:28:47.564Z,1006.30
2023-04-12T02:29:47.553Z,1006.31
2023-04-12T02:30:48.575Z,1006.35
2023-04-12T02:31:47.533Z,1006.35
2023-04-12T02:32:47.572Z,1006.36
2023-04-12T02:33:47.515Z,1006.30
2023-04-12T02:34:47.545Z,1006.33
2023-04-12T02:35:47.551Z,1006.33
2023-04-12T02:36:48.533Z,1006.32
2023-04-12T02:37:47.492Z,1006.32
2023-04-12T02:38:47.499Z,1006.31
2023-04-12T02:39:47.470Z,1006.29
2023-04-12T02:40:47.488Z,1006.30
2023-04-12T02:41:47.470Z,1006.30
2023-04-12T02:42:48.495Z,1006.30
2023-04-12T02:43:47.444Z,1006.26
2023-04-12T02:44:47.454Z,1006.23
2023-04-12T02:45:47.475Z,1006.17
2023-04-12T02:46:47.433Z,1006.11
2023-04-12T02:47:47.477Z,1006.07
2023-04-12T02:48:48.428Z,1006.06
2023-04-12T02:49:47.421Z,1006.08
2023-04-12T02:50:47.392Z,1006.03
2023-04-12T02:51:47.394Z,1006.02
2023-04-12T02:52:47.377Z,1006.05
2023-04-12T02:53:47.394Z,1006.03
2023-04-12T02:54:48.384Z,1006.06
2023-04-12T02:55:47.373Z,1006.04
2023-04-12T02:56:47.359Z,1006.05
2023-04-12T02:57:47.381Z,1006.07
2023-04-12T02:58:47.339Z,1006.06
2023-04-12T02:59:47.345Z,1006.07
2023-04-12T03:00:48.360Z,1006.04
2023-04-12T03:01:47.427Z,1006.01
2023-04-12T03:02:47.459Z,1006.01
2023-04-12T03:03:47.470Z,1005.99
2023-04-12T03:04:47.303Z,1006.00
2023-04-12T03:05:47.330Z,1006.01
2023-04-12T03:06:48.284Z,1005.96
2023-04-12T03:07:47.292Z,1005.99
2023-04-12T03:08:47.274Z,1005.92
2023-04-12T03:09:47.290Z,1005.91
2023-04-12T03:10:47.258Z,1005.84
2023-04-12T03:11:47.252Z,1005.87
2023-04-12T03:12:48.263Z,1005.86
2023-04-12T03:13:47.237Z,1005.83
2023-04-12T03:14:47.215Z,1005.85
2023-04-12T03:15:47.221Z,1005.82
2023-04-12T03:16:47.216Z,1005.78
2023-04-12T03:17:47.270Z,1005.76
2023-04-12T03:18:48.203Z,1005.71
2023-04-12T03:19:47.195Z,1005.73
2023-04-12T03:20:47.869Z,1005.77
2023-04-12T03:21:47.188Z,1005.76
2023-04-12T03:22:47.156Z,1005.74
2023-04-12T03:23:47.160Z,1005.74
2023-04-12T03:24:48.154Z,1005.75
2023-04-12T03:25:47.176Z,1005.68
2023-04-12T03:26:47.162Z,1005.69
2023-04-12T03:27:47.161Z,1005.69
2023-04-12T03:28:47.152Z,1005.68
2023-04-12T03:29:47.145Z,1005.71
2023-04-12T03:30:48.121Z,1005.70
2023-04-12T03:31:47.096Z,1005.73
2023-04-12T03:32:47.167Z,1005.73
2023-04-12T03:33:47.119Z,1005.69
2023-04-12T03:34:47.082Z,1005.66
2023-04-12T03:35:47.125Z,1005.64
2023-04-12T03:36:48.084Z,1005.64
2023-04-12T03:37:47.071Z,1005.61
2023-04-12T03:38:47.071Z,1005.60
2023-04-12T03:39:47.109Z,1005.59
2023-04-12T03:40:47.112Z,1005.53
2023-04-12T03:41:47.090Z,1005.49
2023-04-12T03:42:48.032Z,1005.49
2023-04-12T03:43:47.028Z,1005.43
2023-04-12T03:44:47.025Z,1005.41
2023-04-12T03:45:47.007Z,1005.37
2023-04-12T03:46:47.034Z,1005.32
2023-04-12T03:47:47.015Z,1005.31
2023-04-12T03:48:47.969Z,1005.29
2023-04-12T03:49:57.618Z,1005.30
2023-04-12T03:50:46.950Z,1005.23
2023-04-12T03:51:46.954Z,1005.24
2023-04-12T03:52:46.926Z,1005.26
2023-04-12T03:53:46.930Z,1005.27
2023-04-12T03:54:47.939Z,1005.23
2023-04-12T03:55:46.922Z,1005.22
2023-04-12T03:56:46.935Z,1005.22
2023-04-12T03:57:46.931Z,1005.21
2023-04-12T03:58:46.920Z,1005.25
2023-04-12T03:59:46.887Z,1005.21
2023-04-12T04:00:47.880Z,1005.19
2023-04-12T04:01:46.907Z,1005.21
2023-04-12T04:02:46.906Z,1005.22
2023-04-12T04:03:47.020Z,1005.17
2023-04-12T04:04:46.896Z,1005.18
2023-04-12T04:05:46.857Z,1005.16
2023-04-12T04:06:47.843Z,1005.15
2023-04-12T04:07:46.841Z,1005.14
2023-04-12T04:08:46.819Z,1005.10
2023-04-12T04:09:46.813Z,1005.08
2023-04-12T04:10:46.800Z,1005.08
2023-04-12T04:11:46.843Z,1005.08
2023-04-12T04:12:47.817Z,1005.08
2023-04-12T04:13:46.852Z,1005.15
2023-04-12T04:14:46.787Z,1005.13
2023-04-12T04:15:46.793Z,1005.08
2023-04-12T04:16:46.803Z,1005.11
2023-04-12T04:17:46.809Z,1005.11
2023-04-12T04:18:47.745Z,1005.09
2023-04-12T04:19:46.738Z,1005.11
2023-04-12T04:20:46.736Z,1005.11
2023-04-12T04:21:46.875Z,1005.14
2023-04-12T04:22:46.714Z,1005.12
2023-04-12T04:23:46.757Z,1005.12
2023-04-12T04:24:47.716Z,1005.19
2023-04-12T04:25:46.692Z,1005.23
2023-04-12T04:26:46.703Z,1005.25
2023-04-12T04:27:46.681Z,1005.21
2023-04-12T04:28:46.664Z,1005.23
2023-04-12T04:29:46.682Z,1005.18
2023-04-12T04:30:47.648Z,1005.19
2023-04-12T04:31:46.684Z,1005.16
2023-04-12T04:32:46.673Z,1005.18
2023-04-12T04:33:46.630Z,1005.17
2023-04-12T04:34:46.625Z,1005.20
2023-04-12T04:35:46.652Z,1005.15
2023-04-12T04:36:47.610Z,1005.15
2023-04-12T04:37:46.602Z,1005.18
2023-04-12T04:38:46.590Z,1005.13
2023-04-12T04:39:46.587Z,1005.11
2023-04-12T04:40:46.571Z,1005.07
2023-04-12T04:41:46.707Z,1005.04
2023-04-12T04:42:47.556Z,1005.03
2023-04-12T04:43:46.547Z,1004.99
2023-04-12T04:44:46.535Z,1005.00
2023-04-12T04:45:46.573Z,1005.00
2023-04-12T04:46:46.525Z,1004.97
2023-04-12T04:47:46.604Z,1004.99
2023-04-12T04:48:47.522Z,1004.98
2023-04-12T04:49:46.517Z,1005.03
2023-04-12T04:50:46.489Z,1005.03
2023-04-12T04:51:46.498Z,1004.99
2023-04-12T04:52:46.513Z,1005.02
2023-04-12T04:53:46.488Z,1005.04
2023-04-12T04:54:47.472Z,1005.05
2023-04-12T04:55:46.469Z,1005.03
2023-04-12T04:56:46.463Z,1005.00
2023-04-12T04:57:46.470Z,1005.01
2023-04-12T04:58:46.445Z,1004.99
2023-04-12T04:59:46.426Z,1004.96
2023-04-12T05:00:47.463Z,1004.93
2023-04-12T05:01:46.516Z,1004.95
2023-04-12T05:02:46.526Z,1004.92
2023-04-12T05:03:46.503Z,1004.87
2023-04-12T05:04:46.386Z,1004.86
2023-04-12T05:05:46.417Z,1004.84
2023-04-12T05:06:47.387Z,1004.83
2023-04-12T05:07:46.362Z,1004.84
2023-04-12T05:08:46.366Z,1004.89
2023-04-12T05:09:46.354Z,1004.91
2023-04-12T05:10:46.345Z,1004.89
2023-04-12T05:11:46.344Z,1004.90
2023-04-12T05:12:47.325Z,1004.91
2023-04-12T05:13:46.322Z,1004.93
2023-04-12T05:14:49.870Z,1004.84
2023-04-12T05:15:46.320Z,1004.85
2023-04-12T05:16:46.331Z,1004.87
2023-04-12T05:17:46.334Z,1004.83
2023-04-12T05:18:47.358Z,1004.88
2023-04-12T05:19:46.287Z,1004.80
2023-04-12T05:20:46.271Z,1004.83
2023-04-12T05:21:46.272Z,1004.86
2023-04-12T05:22:46.282Z,1004.84
2023-04-12T05:23:46.252Z,1004.82
2023-04-12T05:24:47.258Z,1004.81
2023-04-12T05:25:46.224Z,1004.81
2023-04-12T05:26:46.236Z,1004.80
2023-04-12T05:27:46.238Z,1004.80
2023-04-12T05:28:46.197Z,1004.79
2023-04-12T05:29:46.199Z,1004.84
2023-04-12T05:30:47.301Z,1004.80
2023-04-12T05:31:46.198Z,1004.78
2023-04-12T05:32:46.208Z,1004.75
2023-04-12T05:33:46.188Z,1004.78
2023-04-12T05:34:46.153Z,1004.76
2023-04-12T05:35:46.225Z,1004.73
2023-04-12T05:36:47.192Z,1004.75
2023-04-12T05:37:46.172Z,1004.72
2023-04-12T05:38:46.164Z,1004.68
2023-04-12T05:39:46.128Z,1004.69
2023-04-12T05:40:46.133Z,1004.65
2023-04-12T05:41:46.132Z,1004.64
2023-04-12T05:42:47.123Z,1004.63
2023-04-12T05:43:46.169Z,1004.60
2023-04-12T05:44:48.605Z,1004.56
2023-04-12T05:45:46.215Z,1004.55
2023-04-12T05:46:46.151Z,1004.53
2023-04-12T05:47:46.102Z,1004.55
2023-04-12T05:48:47.148Z,1004.58
2023-04-12T05:49:46.105Z,1004.57
2023-04-12T05:50:46.077Z,1004.55
2023-04-12T05:51:46.067Z,1004.52
2023-04-12T05:52:46.040Z,1004.50
2023-04-12T05:53:46.039Z,1004.52
2023-04-12T05:54:47.028Z,1004.51
2023-04-12T05:55:46.042Z,1004.46
2023-04-12T05:56:46.035Z,1004.44
2023-04-12T05:57:46.015Z,1004.46
2023-04-12T05:58:45.999Z,1004.44
2023-04-12T05:59:45.995Z,1004.39
2023-04-12T06:00:47.015Z,1004.36
2023-04-12T06:01:45.994Z,1004.33
2023-04-12T06:02:46.176Z,1004.30
2023-04-12T06:03:46.039Z,1004.29
2023-04-12T06:04:50.374Z,1004.31
2023-04-12T06:05:46.063Z,1004.29
2023-04-12T06:06:46.948Z,1004.25
2023-04-12T06:07:45.933Z,1004.28
2023-04-12T06:08:45.916Z,1004.23
2023-04-12T06:09:45.933Z,1004.19
2023-04-12T06:10:45.994Z,1004.21
2023-04-12T06:11:45.929Z,1004.17
2023-04-12T06:12:46.916Z,1004.15
2023-04-12T06:13:45.932Z,1004.15
2023-04-12T06:14:45.873Z,1004.14
2023-04-12T06:15:45.916Z,1004.13
2023-04-12T06:16:45.883Z,1004.07
2023-04-12T06:17:45.942Z,1004.08
2023-04-12T06:18:46.909Z,1004.08
2023-04-12T06:19:45.907Z,1004.07
2023-04-12T06:20:45.836Z,1004.09
2023-04-12T06:21:45.903Z,1004.04
2023-04-12T06:22:45.823Z,1004.02
2023-04-12T06:23:45.872Z,1004.02
2023-04-12T06:24:46.823Z,1003.98
2023-04-12T06:25:45.820Z,1003.97
2023-04-12T06:26:45.789Z,1003.93
2023-04-12T06:27:45.809Z,1003.97
2023-04-12T06:28:45.860Z,1003.94
2023-04-12T06:29:45.807Z,1004.02
2023-04-12T06:30:46.790Z,1003.96
2023-04-12T06:31:45.941Z,1003.98
2023-04-12T06:32:45.797Z,1004.04
2023-04-12T06:33:45.784Z,1004.09
2023-04-12T06:34:45.756Z,1004.03
2023-04-12T06:35:45.823Z,1004.00
2023-04-12T06:36:46.793Z,1004.06
2023-04-12T06:37:45.943Z,1004.06
2023-04-12T06:38:45.755Z,1004.06
2023-04-12T06:39:45.809Z,1004.04
2023-04-12T06:40:45.766Z,1004.04
2023-04-12T06:41:45.759Z,1004.07
2023-04-12T06:42:46.742Z,1004.06
2023-04-12T06:43:45.765Z,1004.05
2023-04-12T06:44:45.735Z,1004.05
2023-04-12T06:45:45.754Z,1004.12
2023-04-12T06:46:45.816Z,1004.11
2023-04-12T06:47:45.765Z,1004.12
2023-04-12T06:48:46.769Z,1004.08
2023-04-12T06:49:45.759Z,1004.09
2023-04-12T06:50:45.827Z,1004.09
2023-04-12T06:51:45.773Z,1004.03
2023-04-12T06:52:52.954Z,1004.03
2023-04-12T06:54:50.747Z,1004.02
2023-04-12T06:55:50.257Z,1004.00
2023-04-12T06:56:50.266Z,1004.01
2023-04-12T06:57:50.262Z,1004.05
2023-04-12T06:58:50.276Z,1004.03
2023-04-12T06:59:50.339Z,1004.01
2023-04-12T07:00:50.343Z,1004.01
2023-04-12T07:01:50.333Z,1003.99
2023-04-12T07:02:50.427Z,1004.01
2023-04-12T07:03:50.388Z,1003.95
2023-04-12T07:04:50.322Z,1003.96
2023-04-12T07:05:50.327Z,1003.95
2023-04-12T07:06:50.345Z,1003.89
2023-04-12T07:07:50.392Z,1003.88
2023-04-12T07:08:50.363Z,1003.91
2023-04-12T07:09:50.400Z,1003.89
2023-04-12T07:10:50.500Z,1003.90
2023-04-12T07:11:50.392Z,1003.91
2023-04-12T07:12:50.406Z,1003.89
2023-04-12T07:13:50.438Z,1003.89
2023-04-12T07:14:50.427Z,1003.85
2023-04-12T07:15:50.461Z,1003.87
2023-04-12T07:16:50.785Z,1003.91
2023-04-12T07:17:50.490Z,1003.85
2023-04-12T07:18:50.488Z,1003.83
2023-04-12T07:19:50.490Z,1003.83
2023-04-12T07:20:50.511Z,1003.85
2023-04-12T07:21:50.523Z,1003.84
2023-04-12T07:22:50.543Z,1003.82
2023-04-12T07:23:50.549Z,1003.78
2023-04-12T07:24:50.578Z,1003.77
2023-04-12T07:25:50.565Z,1003.76
2023-04-12T07:26:50.576Z,1003.74
2023-04-12T07:27:51.819Z,1003.76
2023-04-12T07:28:50.653Z,1003.73
2023-04-12T07:29:50.609Z,1003.75
2023-04-12T07:30:50.632Z,1003.70
2023-04-12T07:31:50.679Z,1003.68
2023-04-12T07:32:50.751Z,1003.69
2023-04-12T07:33:50.759Z,1003.68
2023-04-12T07:34:50.719Z,1003.67
2023-04-12T07:35:50.719Z,1003.65
2023-04-12T07:36:50.710Z,1003.66
2023-04-12T07:37:50.710Z,1003.58
2023-04-12T07:38:50.751Z,1003.58
2023-04-12T07:39:50.852Z,1003.58
2023-04-12T07:40:50.768Z,1003.54
2023-04-12T07:41:50.755Z,1003.56
2023-04-12T07:42:50.787Z,1003.54
2023-04-12T07:43:50.811Z,1003.55
2023-04-12T07:44:50.802Z,1003.53
2023-04-12T07:45:50.922Z,1003.54
2023-04-12T07:46:50.890Z,1003.51
2023-04-12T07:47:50.883Z,1003.47
2023-04-12T07:48:50.930Z,1003.49
2023-04-12T07:49:50.864Z,1003.43
2023-04-12T07:50:50.909Z,1003.44
2023-04-12T07:51:50.899Z,1003.46
2023-04-12T07:52:50.918Z,1003.47
2023-04-12T07:53:50.936Z,1003.42
2023-04-12T07:54:50.949Z,1003.42
2023-04-12T07:55:50.940Z,1003.39
2023-04-12T07:56:50.989Z,1003.35
2023-04-12T07:57:50.970Z,1003.36
2023-04-12T07:58:50.978Z,1003.30
2023-04-12T07:59:51.001Z,1003.31
2023-04-12T08:00:51.038Z,1003.30
2023-04-12T08:01:51.087Z,1003.30
2023-04-12T08:02:51.169Z,1003.27
2023-04-12T08:03:51.187Z,1003.25
2023-04-12T08:04:51.322Z,1003.24
2023-04-12T08:05:51.158Z,1003.15
2023-04-12T08:06:51.137Z,1003.20
2023-04-12T08:07:51.128Z,1003.25
2023-04-12T08:08:51.119Z,1003.19
2023-04-12T08:09:51.161Z,1003.20
2023-04-12T08:10:51.145Z,1003.21
2023-04-12T08:11:51.255Z,1003.14
2023-04-12T08:12:51.185Z,1003.06
2023-04-12T08:13:51.183Z,1003.08
2023-04-12T08:14:51.196Z,1003.10
2023-04-12T08:15:52.255Z,1003.05
2023-04-12T08:16:51.250Z,1003.01
2023-04-12T08:17:51.305Z,1003.01
2023-04-12T08:18:51.321Z,1002.93
2023-04-12T08:19:51.303Z,1002.90
2023-04-12T08:20:51.279Z,1002.90
2023-04-12T08:21:51.350Z,1002.89
2023-04-12T08:22:51.282Z,1002.88
2023-04-12T08:23:51.302Z,1002.90
2023-04-12T08:24:51.312Z,1002.88
2023-04-12T08:25:51.315Z,1002.87
2023-04-12T08:26:51.331Z,1002.88
2023-04-12T08:27:51.404Z,1002.82
2023-04-12T08:28:51.360Z,1002.84
2023-04-12T08:29:51.354Z,1002.81
2023-04-12T08:30:51.436Z,1002.76
2023-04-12T08:31:51.390Z,1002.78
2023-04-12T08:32:51.406Z,1002.79
2023-04-12T08:33:51.377Z,1002.67
2023-04-12T08:34:51.383Z,1002.66
2023-04-12T08:35:51.454Z,1002.67
2023-04-12T08:36:51.413Z,1002.67
2023-04-12T08:37:51.429Z,1002.65
2023-04-12T08:38:51.408Z,1002.61
2023-04-12T08:39:51.439Z,1002.58
2023-04-12T08:40:51.423Z,1002.52
2023-04-12T08:41:51.453Z,1002.52
2023-04-12T08:42:51.428Z,1002.51
2023-04-12T08:43:51.428Z,1002.50
2023-04-12T08:44:51.436Z,1002.50
2023-04-12T08:45:51.459Z,1002.51
2023-04-12T08:46:53.453Z,1002.50
2023-04-12T08:47:51.483Z,1002.41
2023-04-12T08:48:51.445Z,1002.49
2023-04-12T08:49:51.445Z,1002.44
2023-04-12T08:50:51.465Z,1002.44
2023-04-12T08:51:51.439Z,1002.41
2023-04-12T08:52:51.557Z,1002.37
2023-04-12T08:53:51.452Z,1002.33
2023-04-12T08:54:51.448Z,1002.27
2023-04-12T08:55:51.453Z,1002.26
2023-04-12T08:56:51.498Z,1002.27
2023-04-12T08:57:51.550Z,1002.29
2023-04-12T08:58:51.487Z,1002.35
2023-04-12T08:59:51.455Z,1002.29
2023-04-12T09:00:51.504Z,1002.30
2023-04-12T09:01:51.579Z,1002.30
2023-04-12T09:02:51.669Z,1002.27
2023-04-12T09:03:51.568Z,1002.21
2023-04-12T09:04:51.595Z,1002.22
2023-04-12T09:05:51.468Z,1002.24
2023-04-12T09:06:51.452Z,1002.22
2023-04-12T09:07:51.471Z,1002.26
2023-04-12T09:08:51.458Z,1002.21
2023-04-12T09:09:51.520Z,1002.18
2023-04-12T09:10:51.516Z,1002.16
2023-04-12T09:11:51.467Z,1002.08
2023-04-12T09:12:52.896Z,1002.05
2023-04-12T09:13:51.467Z,1002.09
2023-04-12T09:14:51.471Z,1002.10
2023-04-12T09:15:51.491Z,1002.03
2023-04-12T09:16:51.528Z,1002.10
2023-04-12T09:17:51.490Z,1002.08
2023-04-12T09:18:51.509Z,1002.04
2023-04-12T09:19:51.500Z,1001.98
2023-04-12T09:20:51.453Z,1001.97
2023-04-12T09:21:51.481Z,1002.03
2023-04-12T09:22:51.452Z,1002.00
2023-04-12T09:23:51.467Z,1001.98
2023-04-12T09:24:51.484Z,1001.99
2023-04-12T09:25:51.452Z,1001.93
2023-04-12T09:26:51.449Z,1001.95
2023-04-12T09:27:51.448Z,1001.91
2023-04-12T09:28:51.489Z,1001.86
2023-04-12T09:29:51.603Z,1001.84
2023-04-12T09:30:51.500Z,1001.75
2023-04-12T09:31:51.479Z,1001.79
2023-04-12T09:32:51.482Z,1001.81
2023-04-12T09:33:51.449Z,1001.76
2023-04-12T09:34:51.465Z,1001.70
2023-04-12T09:35:51.732Z,1001.72
2023-04-12T09:36:51.485Z,1001.68
2023-04-12T09:37:51.494Z,1001.62
2023-04-12T09:38:51.455Z,1001.62
2023-04-12T09:39:51.447Z,1001.52
2023-04-12T09:40:51.444Z,1001.52
2023-04-12T09:41:51.456Z,1001.49
2023-04-12T09:42:51.465Z,1001.48
2023-04-12T09:43:51.466Z,1001.49
2023-04-12T09:44:51.436Z,1001.41
2023-04-12T09:45:51.476Z,1001.47
2023-04-12T09:46:51.456Z,1001.44
2023-04-12T09:47:51.486Z,1001.40
2023-04-12T09:48:51.428Z,1001.42
2023-04-12T09:49:51.412Z,1001.40
2023-04-12T09:50:51.427Z,1001.40
2023-04-12T09:51:51.463Z,1001.39
2023-04-12T09:52:51.455Z,1001.28
2023-04-12T09:53:51.451Z,1001.32
2023-04-12T09:54:51.433Z,1001.32
2023-04-12T09:55:51.428Z,1001.24
2023-04-12T09:56:51.470Z,1001.26
2023-04-12T09:57:51.418Z,1001.21
2023-04-12T09:58:51.393Z,1001.17
2023-04-12T09:59:51.392Z,1001.15
2023-04-12T10:00:51.409Z,1001.16
2023-04-12T10:01:51.440Z,1001.18
2023-04-12T10:02:52.277Z,1001.14
2023-04-12T10:03:51.532Z,1001.09
2023-04-12T10:04:51.630Z,1001.06
2023-04-12T10:05:51.434Z,1000.97
2023-04-12T10:06:51.377Z,1001.00
2023-04-12T10:07:51.441Z,1000.95
2023-04-12T10:08:51.405Z,1000.94
2023-04-12T10:09:51.390Z,1000.92
2023-04-12T10:10:51.393Z,1000.97
2023-04-12T10:11:51.387Z,1000.92
2023-04-12T10:12:51.376Z,1000.85
2023-04-12T10:13:51.403Z,1000.79
2023-04-12T10:14:51.375Z,1000.71
2023-04-12T10:15:51.395Z,1000.74
2023-04-12T10:18:34.143Z,1000.67
2023-04-12T10:19:34.086Z,1000.65
2023-04-12T10:20:34.102Z,1000.63
2023-04-12T10:21:34.068Z,1000.57
2023-04-12T10:22:34.092Z,1000.58
2023-04-12T10:23:34.086Z,1000.64
2023-04-12T10:24:34.091Z,1000.62
2023-04-12T10:25:34.063Z,1000.59
2023-04-12T10:26:34.150Z,1000.52
2023-04-12T10:27:34.107Z,1000.55
2023-04-12T10:28:34.134Z,1000.54
2023-04-12T10:29:34.067Z,1000.50
2023-04-12T10:30:34.094Z,1000.41
2023-04-12T10:31:34.195Z,1000.37
2023-04-12T10:32:35.373Z,1000.46
2023-04-12T10:33:34.085Z,1000.46
2023-04-12T10:34:34.091Z,1000.44
2023-04-12T10:35:34.092Z,1000.39
2023-04-12T10:36:34.086Z,1000.36
2023-04-12T10:37:34.069Z,1000.38
2023-04-12T10:38:36.082Z,1000.30
2023-04-12T10:39:34.150Z,1000.29
2023-04-12T10:40:34.097Z,1000.30
2023-04-12T10:41:34.045Z,1000.28
2023-04-12T10:42:34.069Z,1000.23
2023-04-12T10:43:34.080Z,1000.25
2023-04-12T10:44:34.044Z,1000.23
2023-04-12T10:45:34.097Z,1000.19
2023-04-12T10:46:34.153Z,1000.22
2023-04-12T10:47:34.103Z,1000.15
2023-04-12T10:48:34.044Z,1000.13
2023-04-12T10:49:34.051Z,1000.08
2023-04-12T10:50:34.047Z,1000.07
2023-04-12T10:51:34.040Z,1000.07
2023-04-12T10:52:34.169Z,1000.08
2023-04-12T10:53:34.044Z,1000.08
2023-04-12T10:54:34.030Z,999.98
2023-04-12T10:55:34.059Z,1000.02
2023-04-12T10:56:34.042Z,999.98
2023-04-12T10:57:34.050Z,1000.11
2023-04-12T10:58:34.023Z,999.90
2023-04-12T10:59:46.964Z,999.90
2023-04-12T11:00:34.121Z,999.89
2023-04-12T11:01:35.940Z,999.87
2023-04-12T11:02:34.137Z,999.83
2023-04-12T11:03:34.105Z,999.89
2023-04-12T11:04:34.073Z,999.80
2023-04-12T11:05:34.042Z,999.83
2023-04-12T11:06:34.021Z,999.80
2023-04-12T11:07:33.992Z,999.82
2023-04-12T11:08:33.987Z,999.78
2023-04-12T11:09:34.014Z,999.70
2023-04-12T11:10:34.138Z,999.82
2023-04-12T11:11:34.121Z,999.68
2023-04-12T11:12:34.129Z,999.76
2023-04-12T11:13:33.998Z,999.67
2023-04-12T11:14:33.988Z,999.65
2023-04-12T11:15:34.183Z,999.65
2023-04-12T11:16:34.072Z,999.62
2023-04-12T11:17:37.018Z,999.64
2023-04-12T11:18:34.072Z,999.61
2023-04-12T11:19:33.984Z,999.57
2023-04-12T11:20:33.982Z,999.48
2023-04-12T11:21:34.018Z,999.48
2023-04-12T11:22:33.991Z,999.42
2023-04-12T11:23:33.997Z,999.42
2023-04-12T11:24:33.974Z,999.34
2023-04-12T11:25:33.992Z,999.44
2023-04-12T11:26:33.960Z,999.50
2023-04-12T11:27:33.948Z,999.47
2023-04-12T11:28:35.352Z,999.50
2023-04-12T11:29:33.974Z,999.40
2023-04-12T11:30:33.953Z,999.40
2023-04-12T11:31:34.003Z,999.40
2023-04-12T11:32:34.079Z,999.37
2023-04-12T11:33:33.948Z,999.32
2023-04-12T11:34:33.950Z,999.31
2023-04-12T11:35:33.945Z,999.30
2023-04-12T11:36:33.930Z,999.30
2023-04-12T11:37:33.945Z,999.33
2023-04-12T11:38:33.936Z,999.34
2023-04-12T11:39:33.926Z,999.24
2023-04-12T11:40:33.938Z,999.24
2023-04-12T11:41:33.947Z,999.23
2023-04-12T11:42:33.962Z,999.24
2023-04-12T11:43:33.973Z,999.23
2023-04-12T11:44:48.192Z,999.18
2023-04-12T11:45:33.939Z,999.15
2023-04-12T11:46:33.919Z,999.30
2023-04-12T11:47:33.953Z,999.17
2023-04-12T11:48:34.130Z,999.14
2023-04-12T11:49:33.915Z,999.10
2023-04-12T11:50:33.912Z,999.05
2023-04-12T11:51:33.953Z,999.17
2023-04-12T11:52:33.953Z,999.06
2023-04-12T11:53:33.898Z,999.04
2023-04-12T11:54:34.058Z,999.00
2023-04-12T11:55:33.990Z,998.98
2023-04-12T11:56:33.895Z,998.97
2023-04-12T11:57:33.899Z,999.00
2023-04-12T11:58:34.011Z,998.88
2023-04-12T11:59:33.969Z,998.92
2023-04-12T12:00:33.895Z,998.88
2023-04-12T12:01:33.915Z,998.86
2023-04-12T12:02:41.246Z,998.82
2023-04-12T12:03:33.984Z,998.80
2023-04-12T12:04:34.164Z,998.85
2023-04-12T12:05:34.199Z,998.74
2023-04-12T12:06:34.001Z,998.69
2023-04-12T12:07:33.976Z,998.64
2023-04-12T12:08:33.922Z,998.63
2023-04-12T12:09:33.897Z,998.62
2023-04-12T12:11:33.865Z,998.58
2023-04-12T12:12:33.877Z,998.58